JBU213 KHPN-KFLL
Flight info
| Callsign | JBU213 |
|---|---|
| Flight time | N/A |
| Altitude | 36000 |
| Route | WHITE Q409 CRPLR KOOKI Q161 CHIEZ Y291 MAJIK CUUDA3 |
| Aircraft | A320/M-SDE3FGHIRWY/LB1 |
Departure
| Time | 2026-04-29 22:17 |
|---|---|
| Airport | Westchester County Airport (KHPN) |
Arrival
| Time | N/A |
|---|---|
| Airport | Fort Lauderdale Hollywood International Airport (KFLL) |
| Time | Latitude | Longitude | Altitude | Speed | Heading |
|---|---|---|---|---|---|
| 2026-04-29 21:58 | 41.06839 | -73.70495 | 399 ft | 0 kts | 60° |
| 2026-04-29 22:02 | 41.06832 | -73.70511 | 399 ft | 2 kts | 60° |
| 2026-04-29 22:02 | 41.06827 | -73.70522 | 399 ft | 2 kts | 50° |
| 2026-04-29 22:03 | 41.06815 | -73.70534 | 399 ft | 2 kts | 22° |
| 2026-04-29 22:03 | 41.06800 | -73.70538 | 398 ft | 2 kts | 358° |
| 2026-04-29 22:03 | 41.06786 | -73.70534 | 398 ft | 1 kts | 334° |
| 2026-04-29 22:03 | 41.06781 | -73.70530 | 398 ft | 1 kts | 326° |
| 2026-04-29 22:04 | 41.06778 | -73.70528 | 398 ft | 0 kts | 328° |
| 2026-04-29 22:10 | 41.06795 | -73.70541 | 397 ft | 10 kts | 328° |
| 2026-04-29 22:10 | 41.06883 | -73.70612 | 400 ft | 15 kts | 329° |
| 2026-04-29 22:10 | 41.06972 | -73.70679 | 403 ft | 14 kts | 330° |
| 2026-04-29 22:10 | 41.07061 | -73.70747 | 406 ft | 17 kts | 329° |
| 2026-04-29 22:11 | 41.07163 | -73.70824 | 409 ft | 16 kts | 335° |
| 2026-04-29 22:11 | 41.07262 | -73.70865 | 413 ft | 14 kts | 342° |
| 2026-04-29 22:11 | 41.07347 | -73.70923 | 415 ft | 13 kts | 329° |
| 2026-04-29 22:11 | 41.07424 | -73.70982 | 417 ft | 12 kts | 329° |
| 2026-04-29 22:12 | 41.07497 | -73.71038 | 418 ft | 11 kts | 329° |
| 2026-04-29 22:12 | 41.07502 | -73.71042 | 418 ft | 0 kts | 328° |
| 2026-04-29 22:13 | 41.07510 | -73.71048 | 418 ft | 5 kts | 328° |
| 2026-04-29 22:13 | 41.07538 | -73.71091 | 419 ft | 7 kts | 293° |
| 2026-04-29 22:13 | 41.07549 | -73.71163 | 419 ft | 10 kts | 276° |
| 2026-04-29 22:14 | 41.07556 | -73.71263 | 419 ft | 11 kts | 275° |
| 2026-04-29 22:14 | 41.07543 | -73.71318 | 419 ft | 4 kts | 189° |
| 2026-04-29 22:14 | 41.07510 | -73.71298 | 419 ft | 6 kts | 149° |
| 2026-04-29 22:14 | 41.07508 | -73.71297 | 418 ft | 0 kts | 149° |
| 2026-04-29 22:16 | 41.07498 | -73.71289 | 418 ft | 16 kts | 149° |
| 2026-04-29 22:16 | 41.07177 | -73.71042 | 411 ft | 88 kts | 149° |
| 2026-04-29 22:16 | 41.06467 | -73.70500 | 391 ft | 146 kts | 150° |
| 2026-04-29 22:16 | 41.05566 | -73.69814 | 888 ft | 149 kts | 154° |
| 2026-04-29 22:17 | 41.04589 | -73.69369 | 1440 ft | 154 kts | 165° |
| 2026-04-29 22:17 | 41.03548 | -73.69014 | 2023 ft | 157 kts | 165° |
| 2026-04-29 22:17 | 41.02459 | -73.68693 | 2512 ft | 167 kts | 167° |
| 2026-04-29 22:17 | 41.01262 | -73.68370 | 2880 ft | 185 kts | 168° |
| 2026-04-29 22:18 | 40.99944 | -73.68011 | 3263 ft | 205 kts | 168° |
| 2026-04-29 22:18 | 40.98475 | -73.67617 | 3659 ft | 226 kts | 172° |
| 2026-04-29 22:18 | 40.96879 | -73.67839 | 4111 ft | 245 kts | 201° |
| 2026-04-29 22:18 | 40.95329 | -73.68897 | 4771 ft | 257 kts | 208° |
| 2026-04-29 22:19 | 40.93784 | -73.70066 | 5636 ft | 259 kts | 208° |
| 2026-04-29 22:19 | 40.92211 | -73.71223 | 6520 ft | 260 kts | 208° |
| 2026-04-29 22:19 | 40.90620 | -73.72353 | 7328 ft | 264 kts | 207° |
| 2026-04-29 22:19 | 40.89000 | -73.73473 | 8112 ft | 267 kts | 207° |
| 2026-04-29 22:20 | 40.87345 | -73.74597 | 8870 ft | 270 kts | 207° |
| 2026-04-29 22:20 | 40.85668 | -73.75725 | 9619 ft | 273 kts | 207° |
| 2026-04-29 22:20 | 40.83972 | -73.76857 | 10288 ft | 278 kts | 207° |
| 2026-04-29 22:20 | 40.82204 | -73.78033 | 10678 ft | 292 kts | 207° |
| 2026-04-29 22:21 | 40.80357 | -73.79257 | 11253 ft | 299 kts | 207° |
| 2026-04-29 22:21 | 40.78496 | -73.80485 | 11916 ft | 301 kts | 207° |
| 2026-04-29 22:21 | 40.76620 | -73.81720 | 12544 ft | 304 kts | 207° |
| 2026-04-29 22:21 | 40.74722 | -73.82968 | 13164 ft | 307 kts | 207° |
| 2026-04-29 22:22 | 40.72810 | -73.84224 | 13780 ft | 309 kts | 207° |
| 2026-04-29 22:22 | 40.70887 | -73.85484 | 14393 ft | 311 kts | 208° |
| 2026-04-29 22:22 | 40.68947 | -73.86756 | 14968 ft | 314 kts | 208° |
| 2026-04-29 22:22 | 40.66973 | -73.88051 | 15510 ft | 318 kts | 208° |
| 2026-04-29 22:23 | 40.64996 | -73.89347 | 16045 ft | 321 kts | 208° |
| 2026-04-29 22:23 | 40.62991 | -73.90658 | 16574 ft | 324 kts | 209° |
| 2026-04-29 22:23 | 40.60984 | -73.91970 | 17101 ft | 327 kts | 209° |
| 2026-04-29 22:23 | 40.58947 | -73.93302 | 17626 ft | 329 kts | 209° |
| 2026-04-29 22:24 | 40.56893 | -73.94644 | 18121 ft | 332 kts | 210° |
| 2026-04-29 22:24 | 40.54825 | -73.95995 | 18624 ft | 334 kts | 210° |
| 2026-04-29 22:24 | 40.52724 | -73.97368 | 19133 ft | 337 kts | 210° |
| 2026-04-29 22:24 | 40.50631 | -73.98734 | 19627 ft | 339 kts | 210° |
| 2026-04-29 22:25 | 40.48511 | -74.00116 | 20094 ft | 341 kts | 210° |
| 2026-04-29 22:25 | 40.46384 | -74.01502 | 20564 ft | 344 kts | 210° |
| 2026-04-29 22:25 | 40.44242 | -74.02896 | 21007 ft | 346 kts | 210° |
| 2026-04-29 22:25 | 40.42078 | -74.04303 | 21447 ft | 348 kts | 210° |
| 2026-04-29 22:26 | 40.39907 | -74.05713 | 21884 ft | 350 kts | 210° |
| 2026-04-29 22:26 | 40.37708 | -74.07141 | 22310 ft | 353 kts | 211° |
| 2026-04-29 22:26 | 40.35513 | -74.08566 | 22738 ft | 354 kts | 210° |
| 2026-04-29 22:26 | 40.33301 | -74.09999 | 23150 ft | 356 kts | 211° |
| 2026-04-29 22:27 | 40.31082 | -74.11437 | 23578 ft | 357 kts | 211° |
| 2026-04-29 22:27 | 40.28856 | -74.12877 | 24007 ft | 358 kts | 211° |
| 2026-04-29 22:27 | 40.26622 | -74.14323 | 24443 ft | 359 kts | 211° |
| 2026-04-29 22:27 | 40.24381 | -74.15772 | 24829 ft | 361 kts | 211° |
| 2026-04-29 22:28 | 40.22118 | -74.17234 | 25257 ft | 362 kts | 211° |
| 2026-04-29 22:28 | 40.19867 | -74.18687 | 25662 ft | 363 kts | 211° |
| 2026-04-29 22:28 | 40.17611 | -74.20143 | 26065 ft | 364 kts | 211° |
| 2026-04-29 22:28 | 40.15347 | -74.21603 | 26443 ft | 365 kts | 211° |
| 2026-04-29 22:29 | 40.13071 | -74.23069 | 26818 ft | 366 kts | 211° |
| 2026-04-29 22:29 | 40.10786 | -74.24539 | 27165 ft | 368 kts | 211° |
| 2026-04-29 22:29 | 40.08492 | -74.26014 | 27514 ft | 369 kts | 211° |
| 2026-04-29 22:29 | 40.06174 | -74.27503 | 27885 ft | 370 kts | 211° |
| 2026-04-29 22:30 | 40.03864 | -74.28986 | 28232 ft | 371 kts | 211° |
| 2026-04-29 22:30 | 40.01548 | -74.30473 | 28578 ft | 372 kts | 211° |
| 2026-04-29 22:30 | 39.99225 | -74.31963 | 28926 ft | 373 kts | 211° |
| 2026-04-29 22:30 | 39.96901 | -74.33452 | 29233 ft | 374 kts | 211° |
| 2026-04-29 22:31 | 39.94569 | -74.34943 | 29570 ft | 375 kts | 211° |
| 2026-04-29 22:31 | 39.92232 | -74.36438 | 29901 ft | 375 kts | 211° |
| 2026-04-29 22:31 | 39.89871 | -74.37948 | 30197 ft | 376 kts | 211° |
| 2026-04-29 22:31 | 39.87517 | -74.39466 | 30479 ft | 377 kts | 213° |
| 2026-04-29 22:32 | 39.85233 | -74.41129 | 30720 ft | 377 kts | 216° |
| 2026-04-29 22:32 | 39.83031 | -74.42967 | 30954 ft | 377 kts | 219° |
| 2026-04-29 22:32 | 39.80921 | -74.44972 | 31203 ft | 377 kts | 222° |
| 2026-04-29 22:32 | 39.78905 | -74.47144 | 31488 ft | 377 kts | 225° |
| 2026-04-29 22:33 | 39.77002 | -74.49454 | 31747 ft | 376 kts | 229° |
| 2026-04-29 22:33 | 39.75156 | -74.51889 | 31992 ft | 377 kts | 229° |
| 2026-04-29 22:33 | 39.73315 | -74.54320 | 32213 ft | 379 kts | 229° |
| 2026-04-29 22:33 | 39.71470 | -74.56759 | 32414 ft | 381 kts | 229° |
| 2026-04-29 22:34 | 39.69612 | -74.59210 | 32628 ft | 382 kts | 229° |
| 2026-04-29 22:34 | 39.67754 | -74.61666 | 32891 ft | 383 kts | 229° |
| 2026-04-29 22:34 | 39.65897 | -74.64115 | 33221 ft | 381 kts | 230° |
| 2026-04-29 22:34 | 39.64045 | -74.66558 | 33549 ft | 379 kts | 229° |
| 2026-04-29 22:35 | 39.62185 | -74.69010 | 33860 ft | 378 kts | 229° |
| 2026-04-29 22:35 | 39.60347 | -74.71431 | 34156 ft | 377 kts | 230° |
| 2026-04-29 22:35 | 39.58572 | -74.73768 | 34369 ft | 377 kts | 229° |
| 2026-04-29 22:35 | 39.56738 | -74.76184 | 34566 ft | 377 kts | 229° |
| 2026-04-29 22:36 | 39.54907 | -74.78592 | 34767 ft | 377 kts | 230° |
| 2026-04-29 22:36 | 39.53069 | -74.81010 | 34933 ft | 378 kts | 230° |
| 2026-04-29 22:36 | 39.51226 | -74.83429 | 35084 ft | 379 kts | 229° |
| 2026-04-29 22:36 | 39.49368 | -74.85869 | 35246 ft | 379 kts | 230° |
| 2026-04-29 22:37 | 39.47523 | -74.88288 | 35393 ft | 380 kts | 229° |
| 2026-04-29 22:37 | 39.45669 | -74.90719 | 35528 ft | 381 kts | 230° |
| 2026-04-29 22:37 | 39.43810 | -74.93151 | 35662 ft | 382 kts | 230° |
| 2026-04-29 22:37 | 39.41950 | -74.95586 | 35830 ft | 382 kts | 230° |
| 2026-04-29 22:38 | 39.40088 | -74.98022 | 35886 ft | 383 kts | 230° |
| 2026-04-29 22:38 | 39.36318 | -75.02947 | 35892 ft | 389 kts | 230° |
| 2026-04-29 22:39 | 39.32482 | -75.07945 | 35900 ft | 397 kts | 230° |
| 2026-04-29 22:39 | 39.28486 | -75.12916 | 35894 ft | 402 kts | 226° |
| 2026-04-29 22:40 | 39.24366 | -75.17740 | 35895 ft | 402 kts | 227° |
| 2026-04-29 22:40 | 39.20225 | -75.22593 | 35884 ft | 403 kts | 227° |
| 2026-04-29 22:41 | 39.16085 | -75.27435 | 35886 ft | 404 kts | 227° |
| 2026-04-29 22:41 | 39.11938 | -75.32273 | 35884 ft | 404 kts | 227° |
| 2026-04-29 22:42 | 39.07710 | -75.37042 | 35880 ft | 407 kts | 223° |
| 2026-04-29 22:42 | 39.02921 | -75.40994 | 35891 ft | 414 kts | 214° |
| 2026-04-29 22:43 | 38.97548 | -75.43852 | 35882 ft | 423 kts | 205° |
| 2026-04-29 22:43 | 38.91733 | -75.45442 | 35871 ft | 434 kts | 195° |
| 2026-04-29 22:44 | 38.85713 | -75.46320 | 35878 ft | 435 kts | 194° |
| 2026-04-29 22:44 | 38.79703 | -75.47153 | 35871 ft | 435 kts | 195° |
| 2026-04-29 22:45 | 38.73717 | -75.47984 | 35884 ft | 434 kts | 195° |
| 2026-04-29 22:45 | 38.67681 | -75.48814 | 35880 ft | 435 kts | 195° |
| 2026-04-29 22:46 | 38.61666 | -75.49627 | 35887 ft | 433 kts | 195° |
| 2026-04-29 22:46 | 38.55664 | -75.50442 | 35894 ft | 434 kts | 195° |
| 2026-04-29 22:47 | 38.49668 | -75.51255 | 35890 ft | 433 kts | 195° |
| 2026-04-29 22:47 | 38.43676 | -75.52065 | 35893 ft | 433 kts | 196° |
| 2026-04-29 22:48 | 38.37835 | -75.53500 | 35892 ft | 423 kts | 204° |
| 2026-04-29 22:48 | 38.32365 | -75.55922 | 35900 ft | 412 kts | 211° |
| 2026-04-29 22:49 | 38.27309 | -75.59239 | 35904 ft | 406 kts | 219° |
| 2026-04-29 22:49 | 38.22645 | -75.63193 | 35893 ft | 404 kts | 221° |
| 2026-04-29 22:50 | 38.18096 | -75.67135 | 35887 ft | 404 kts | 220° |
| 2026-04-29 22:50 | 38.13473 | -75.71146 | 35890 ft | 403 kts | 221° |
| 2026-04-29 22:51 | 38.09080 | -75.74954 | 35883 ft | 403 kts | 220° |